createdAt,value
2019-03-04T00:02:03.843Z,22.07
2019-03-04T00:04:33.995Z,23.18
2019-03-04T00:07:04.243Z,19.55
2019-03-04T00:09:34.425Z,20.43
2019-03-04T00:12:04.608Z,20.02
2019-03-04T00:14:35.417Z,14.45
2019-03-04T00:17:08.725Z,20.15
2019-03-04T00:19:38.959Z,21.00
2019-03-04T00:22:09.990Z,17.70
2019-03-04T00:24:51.785Z,16.48
2019-03-04T00:27:22.895Z,20.08
2019-03-04T00:29:53.033Z,19.62
2019-03-04T00:32:23.238Z,21.37
2019-03-04T00:34:53.268Z,20.90
2019-03-04T00:37:23.345Z,19.00
2019-03-04T00:39:53.437Z,18.32
2019-03-04T00:42:23.659Z,15.28
2019-03-04T00:44:53.739Z,17.62
2019-03-04T00:47:23.941Z,17.75
2019-03-04T00:49:53.926Z,19.20
2019-03-04T00:52:24.171Z,17.90
2019-03-04T00:54:55.431Z,19.23
2019-03-04T00:57:25.622Z,19.52
2019-03-04T00:59:55.683Z,15.63
2019-03-04T01:02:25.587Z,18.23
2019-03-04T01:05:14.784Z,15.80
2019-03-04T01:07:45.039Z,17.45
2019-03-04T01:10:15.626Z,17.67
2019-03-04T01:12:45.795Z,18.15
2019-03-04T01:15:17.842Z,17.40
2019-03-04T01:17:48.042Z,18.07
2019-03-04T01:20:18.733Z,17.10
2019-03-04T01:22:48.960Z,16.17
2019-03-04T01:25:19.370Z,13.18
2019-03-04T01:27:49.668Z,17.77
2019-03-04T01:30:21.811Z,16.90
2019-03-04T01:32:52.700Z,19.02
2019-03-04T01:35:22.890Z,17.67
2019-03-04T01:37:52.966Z,15.38
2019-03-04T01:40:23.214Z,17.15
2019-03-04T01:42:56.350Z,18.35
2019-03-04T01:45:26.769Z,15.50
2019-03-04T01:47:56.936Z,16.27
2019-03-04T01:50:27.938Z,16.23
2019-03-04T01:52:58.115Z,17.12
2019-03-04T01:55:28.244Z,16.97
2019-03-04T01:57:58.390Z,12.88
2019-03-04T02:00:28.647Z,15.03
2019-03-04T02:02:58.692Z,16.55
2019-03-04T02:05:28.843Z,17.45
2019-03-04T02:07:58.927Z,17.23
2019-03-04T02:10:29.151Z,16.80
2019-03-04T02:12:59.147Z,16.80
2019-03-04T02:15:29.211Z,16.42
2019-03-04T02:17:59.397Z,15.45
2019-03-04T02:20:29.614Z,15.58
2019-03-04T02:22:59.921Z,13.13
2019-03-04T02:26:08.433Z,14.68
2019-03-04T02:28:57.667Z,15.72
2019-03-04T02:31:27.794Z,14.95
2019-03-04T02:33:58.038Z,14.95
2019-03-04T02:36:28.274Z,14.00
2019-03-04T02:38:58.370Z,13.10
2019-03-04T02:41:28.517Z,11.57
2019-03-04T02:43:58.661Z,15.10
2019-03-04T02:46:28.834Z,13.13
2019-03-04T02:48:59.100Z,14.00
2019-03-04T02:51:29.203Z,14.75
2019-03-04T02:53:59.365Z,13.28
2019-03-04T02:56:29.579Z,13.93
2019-03-04T02:58:59.728Z,12.05
2019-03-04T03:01:29.931Z,10.05
2019-03-04T03:03:59.939Z,13.98
2019-03-04T03:06:30.055Z,12.68
2019-03-04T03:09:00.194Z,13.68
2019-03-04T03:11:30.285Z,12.95
2019-03-04T03:14:00.417Z,10.72
2019-03-04T03:16:30.410Z,11.08
2019-03-04T03:19:00.596Z,9.20
2019-03-04T03:21:30.748Z,12.35
2019-03-04T03:24:01.110Z,13.55
2019-03-04T03:26:31.110Z,11.03
2019-03-04T03:29:01.122Z,11.70
2019-03-04T03:31:31.168Z,11.70
2019-03-04T03:34:02.434Z,9.68
2019-03-04T03:36:32.669Z,10.88
2019-03-04T03:39:04.289Z,11.12
2019-03-04T03:41:37.116Z,10.85
2019-03-04T03:44:07.257Z,8.58
2019-03-04T03:46:37.779Z,10.63
2019-03-04T03:49:08.079Z,10.63
2019-03-04T03:51:38.304Z,7.80
2019-03-04T03:54:10.149Z,10.43
2019-03-04T03:56:40.278Z,9.95
2019-03-04T03:59:10.488Z,9.83
2019-03-04T04:01:40.581Z,10.25
2019-03-04T04:04:10.595Z,10.10
2019-03-04T04:06:40.651Z,9.38
2019-03-04T04:09:10.789Z,9.85
2019-03-04T04:11:41.005Z,9.68
2019-03-04T04:14:11.100Z,9.20
2019-03-04T04:16:41.153Z,10.13
2019-03-04T04:19:11.168Z,8.13
2019-03-04T04:21:41.273Z,10.65
2019-03-04T04:24:11.335Z,8.78
2019-03-04T04:26:41.422Z,7.90
2019-03-04T04:29:12.472Z,9.38
2019-03-04T04:31:43.517Z,9.15
2019-03-04T04:34:13.966Z,9.28
2019-03-04T04:36:44.118Z,8.35
2019-03-04T04:39:14.309Z,8.30
2019-03-04T04:41:44.305Z,8.95
2019-03-04T04:44:14.470Z,7.45
2019-03-04T04:47:05.767Z,8.50
2019-03-04T04:49:47.779Z,9.55
2019-03-04T04:52:17.982Z,10.50
2019-03-04T04:54:48.170Z,10.48
2019-03-04T04:57:18.402Z,9.40
2019-03-04T04:59:49.623Z,10.08
2019-03-04T05:02:19.886Z,8.75
2019-03-04T05:04:49.993Z,8.50
2019-03-04T05:07:20.116Z,6.87
2019-03-04T05:09:50.290Z,7.50
2019-03-04T05:12:20.540Z,7.53
2019-03-04T05:14:52.322Z,8.50
2019-03-04T05:17:22.258Z,5.90
2019-03-04T05:19:52.402Z,9.28
2019-03-04T05:22:25.423Z,8.23
2019-03-04T05:24:55.694Z,9.38
2019-03-04T05:27:25.696Z,8.28
2019-03-04T05:29:55.776Z,8.63
2019-03-04T05:32:26.035Z,7.72
2019-03-04T05:34:56.179Z,7.08
2019-03-04T05:37:26.308Z,8.20
2019-03-04T05:39:56.361Z,7.58
2019-03-04T05:42:26.521Z,8.68
2019-03-04T05:44:58.201Z,7.28
2019-03-04T05:47:28.256Z,8.23
2019-03-04T05:49:58.455Z,8.15
2019-03-04T05:52:28.638Z,7.05
2019-03-04T05:54:58.812Z,8.08
2019-03-04T05:57:28.932Z,8.43
2019-03-04T05:59:59.193Z,7.87
2019-03-04T06:02:30.541Z,8.38
2019-03-04T06:05:02.180Z,8.10
2019-03-04T06:07:37.879Z,7.45
2019-03-04T06:10:10.579Z,8.30
2019-03-04T06:12:40.749Z,7.92
2019-03-04T06:30:09.079Z,7.80
2019-03-04T06:32:42.918Z,6.60
2019-03-04T06:35:14.214Z,6.37
2019-03-04T06:37:44.318Z,7.40
2019-03-04T06:40:15.914Z,6.87
2019-03-04T06:42:46.084Z,6.35
2019-03-04T06:45:16.398Z,6.25
2019-03-04T06:47:46.611Z,7.70
2019-03-04T06:50:44.905Z,7.87
2019-03-04T06:53:17.785Z,8.30
2019-03-04T06:56:26.213Z,7.17
2019-03-04T06:59:10.724Z,8.05
2019-03-04T07:01:44.954Z,6.60
2019-03-04T07:04:27.012Z,4.37
2019-03-04T07:06:57.010Z,8.13
2019-03-04T07:09:28.646Z,7.55
2019-03-04T07:12:10.753Z,6.53
2019-03-04T07:14:42.536Z,7.70
2019-03-04T07:17:12.960Z,7.47
2019-03-04T07:19:43.115Z,7.05
2019-03-04T07:22:14.271Z,7.25
2019-03-04T07:24:44.439Z,6.87
2019-03-04T07:27:14.602Z,6.90
2019-03-04T07:29:44.868Z,6.87
2019-03-04T07:32:15.100Z,7.47
2019-03-04T07:34:45.162Z,6.70
2019-03-04T07:37:15.292Z,7.75
2019-03-04T07:39:45.331Z,8.33
2019-03-04T07:42:15.737Z,7.97
2019-03-04T07:44:45.805Z,6.33
2019-03-04T07:47:17.849Z,6.70
2019-03-04T07:49:50.264Z,6.75
2019-03-04T07:52:20.504Z,6.47
2019-03-04T07:54:50.843Z,6.47
2019-03-04T07:57:21.185Z,6.67
2019-03-04T07:59:51.343Z,6.78
2019-03-04T08:02:21.817Z,6.15
2019-03-04T08:04:52.125Z,6.47
2019-03-04T08:07:42.754Z,6.95
2019-03-04T08:10:43.207Z,5.67
2019-03-04T08:13:18.104Z,5.80
2019-03-04T08:15:51.086Z,7.85
2019-03-04T08:18:21.489Z,6.37
2019-03-04T08:20:51.660Z,5.45
2019-03-04T08:23:21.948Z,7.05
2019-03-04T08:25:52.043Z,5.17
2019-03-04T08:28:22.434Z,5.33
2019-03-04T08:30:52.765Z,5.47
2019-03-04T08:33:23.082Z,5.17
2019-03-04T08:35:53.454Z,4.97
2019-03-04T08:38:24.164Z,7.03
2019-03-04T08:40:57.034Z,6.25
2019-03-04T08:43:28.404Z,5.78
2019-03-04T08:45:58.637Z,5.55
2019-03-04T08:48:29.744Z,6.95
2019-03-04T08:51:02.165Z,5.17
2019-03-04T08:53:31.672Z,4.62
2019-03-04T08:56:01.949Z,5.22
2019-03-04T08:58:34.279Z,4.92
2019-03-04T09:01:57.685Z,5.25
2019-03-04T09:04:28.049Z,4.83
2019-03-04T09:06:58.228Z,4.08
2019-03-04T09:09:28.349Z,4.12
2019-03-04T09:11:58.667Z,3.98
2019-03-04T09:14:28.878Z,5.22
2019-03-04T09:16:59.163Z,4.20
2019-03-04T09:19:29.269Z,4.35
2019-03-04T09:21:59.748Z,4.10
2019-03-04T09:24:29.953Z,3.45
2019-03-04T09:27:00.219Z,4.72
2019-03-04T09:29:30.481Z,5.03
2019-03-04T09:32:00.528Z,3.92
2019-03-04T09:34:32.695Z,5.25
2019-03-04T09:37:02.995Z,3.85
2019-03-04T09:39:33.316Z,4.40
2019-03-04T09:42:11.536Z,4.35
2019-03-04T09:44:41.659Z,3.58
2019-03-04T09:47:11.819Z,4.87
2019-03-04T09:49:41.975Z,3.37
2019-03-04T09:52:12.342Z,3.72
2019-03-04T09:54:42.410Z,3.20
2019-03-04T09:57:13.579Z,4.78
2019-03-04T09:59:43.650Z,4.85
2019-03-04T10:02:18.411Z,4.50
2019-03-04T10:05:13.721Z,5.40
2019-03-04T10:08:14.863Z,4.15
2019-03-04T10:11:06.567Z,4.95
2019-03-04T10:13:59.642Z,4.47
2019-03-04T10:16:57.569Z,5.37
2019-03-04T10:19:57.107Z,4.22
2019-03-04T10:22:50.804Z,4.37
2019-03-04T10:25:46.600Z,4.83
2019-03-04T10:28:55.387Z,4.00
2019-03-04T10:31:42.056Z,4.53
2019-03-04T10:34:42.725Z,5.12
2019-03-04T10:37:39.663Z,5.05
2019-03-04T10:40:33.922Z,4.75
2019-03-04T10:43:28.625Z,4.45
2019-03-04T10:46:20.780Z,4.15
2019-03-04T10:48:51.242Z,3.35
2019-03-04T10:51:21.376Z,4.62
2019-03-04T10:53:51.799Z,3.95
2019-03-04T10:56:22.021Z,4.62
2019-03-04T10:58:52.524Z,4.30
2019-03-04T11:01:30.088Z,4.20
2019-03-04T11:03:54.585Z,3.45
2019-03-04T11:06:25.087Z,3.58
2019-03-04T11:08:55.515Z,3.87
2019-03-04T11:11:30.085Z,3.72
2019-03-04T11:13:58.907Z,3.77
2019-03-04T11:16:30.799Z,4.53
2019-03-04T11:19:01.019Z,4.22
2019-03-04T11:21:31.221Z,3.92
2019-03-04T11:24:01.613Z,3.30
2019-03-04T11:26:31.818Z,3.85
2019-03-04T11:29:02.162Z,5.20
2019-03-04T11:31:32.347Z,4.95
2019-03-04T11:34:02.632Z,3.60
2019-03-04T11:36:32.963Z,4.20
2019-03-04T11:39:18.333Z,3.37
2019-03-04T11:41:49.268Z,3.33
2019-03-04T11:44:19.381Z,2.47
2019-03-04T11:46:49.617Z,4.10
2019-03-04T11:49:19.749Z,3.60
2019-03-04T11:51:49.920Z,3.33
2019-03-04T11:54:23.079Z,4.30
2019-03-04T11:56:53.262Z,3.77
2019-03-04T11:59:23.349Z,3.95
2019-03-04T12:01:53.409Z,4.10
2019-03-04T12:04:23.607Z,3.30
2019-03-04T12:06:54.095Z,3.20
2019-03-04T12:09:24.460Z,3.67
2019-03-04T12:11:55.669Z,3.20
2019-03-04T12:14:26.192Z,2.83
2019-03-04T12:16:57.618Z,2.98
2019-03-04T12:19:28.816Z,3.62
2019-03-04T12:22:00.988Z,4.15
2019-03-04T12:24:31.346Z,2.77
2019-03-04T12:27:01.545Z,3.80
2019-03-04T12:29:31.800Z,3.58
2019-03-04T12:32:20.920Z,3.55
2019-03-04T12:34:51.049Z,3.27
2019-03-04T12:37:21.267Z,3.67
2019-03-04T12:39:51.388Z,3.22
2019-03-04T12:42:22.701Z,3.58
2019-03-04T12:44:52.887Z,3.40
2019-03-04T12:47:23.034Z,3.55
2019-03-04T12:49:53.238Z,3.60
2019-03-04T12:52:23.473Z,3.70
2019-03-04T12:54:53.744Z,3.87
2019-03-04T12:57:23.927Z,3.27
2019-03-04T12:59:53.979Z,3.15
2019-03-04T13:02:24.240Z,3.40
2019-03-04T13:04:54.341Z,3.72
2019-03-04T13:07:26.067Z,3.98
2019-03-04T13:09:56.609Z,4.10
2019-03-04T13:12:26.806Z,3.77
2019-03-04T13:14:56.845Z,3.20
2019-03-04T13:17:26.847Z,2.80
2019-03-04T13:19:56.825Z,2.85
2019-03-04T13:22:27.979Z,3.30
2019-03-04T13:24:58.261Z,2.72
2019-03-04T13:27:28.465Z,3.37
2019-03-04T13:29:58.612Z,2.80
2019-03-04T13:32:28.809Z,3.98
2019-03-04T13:34:58.922Z,3.22
2019-03-04T13:37:30.442Z,3.35
2019-03-04T13:40:00.824Z,3.27
2019-03-04T13:42:31.522Z,3.45
2019-03-04T13:45:01.672Z,3.22
2019-03-04T13:47:33.357Z,3.15
2019-03-04T13:50:07.037Z,3.45
2019-03-04T13:52:37.388Z,3.00
2019-03-04T13:55:07.474Z,2.70
2019-03-04T13:57:37.731Z,3.25
2019-03-04T14:00:10.972Z,3.12
2019-03-04T14:02:41.199Z,3.95
2019-03-04T14:05:11.942Z,4.42
2019-03-04T14:07:42.152Z,4.12
2019-03-04T14:10:13.639Z,3.72
2019-03-04T14:12:44.068Z,3.27
2019-03-04T14:15:17.660Z,3.58
2019-03-04T14:17:47.979Z,2.85
2019-03-04T14:20:18.207Z,2.50
2019-03-04T14:22:57.296Z,2.90
2019-03-04T14:25:20.400Z,3.37
2019-03-04T14:27:50.646Z,3.33
2019-03-04T14:30:20.827Z,4.58
2019-03-04T14:32:51.121Z,3.40
2019-03-04T14:35:21.381Z,3.42
2019-03-04T14:37:51.622Z,3.80
2019-03-04T14:40:21.804Z,3.85
2019-03-04T14:42:52.027Z,3.30
2019-03-04T14:45:22.339Z,4.58
2019-03-04T14:47:52.567Z,3.77
2019-03-04T14:50:22.961Z,4.35
2019-03-04T14:52:53.248Z,4.50
2019-03-04T14:55:23.449Z,4.12
2019-03-04T14:57:53.996Z,4.90
2019-03-04T15:00:29.491Z,7.72
2019-03-04T15:02:59.866Z,5.90
2019-03-04T15:05:29.984Z,4.10
2019-03-04T15:08:00.181Z,3.50
2019-03-04T15:10:31.577Z,4.42
2019-03-04T15:13:01.895Z,4.92
2019-03-04T15:15:32.630Z,5.20
2019-03-04T15:18:03.137Z,3.90
2019-03-04T15:20:34.601Z,6.50
2019-03-04T15:23:04.986Z,3.62
2019-03-04T15:25:35.712Z,5.55
2019-03-04T15:28:11.965Z,5.25
2019-03-04T15:30:43.312Z,4.78
2019-03-04T15:33:18.081Z,4.92
2019-03-04T15:35:46.138Z,3.60
2019-03-04T15:38:17.464Z,4.03
2019-03-04T15:40:49.298Z,4.92
2019-03-04T15:43:19.544Z,5.67
2019-03-04T15:45:52.125Z,6.87
2019-03-04T15:48:23.765Z,5.35
2019-03-04T15:50:55.773Z,5.42
2019-03-04T15:53:26.674Z,5.50
2019-03-04T15:55:56.836Z,6.37
2019-03-04T15:58:27.021Z,7.28
2019-03-04T16:00:57.467Z,6.37
2019-03-04T16:03:27.689Z,6.78
2019-03-04T16:05:57.931Z,7.47
2019-03-04T16:08:28.093Z,11.22
2019-03-04T16:10:58.356Z,4.92
2019-03-04T16:13:28.659Z,5.80
2019-03-04T16:15:58.846Z,5.42
2019-03-04T16:18:29.193Z,4.58
2019-03-04T16:20:59.452Z,5.55
2019-03-04T16:23:29.792Z,5.45
2019-03-04T16:26:05.664Z,7.05
2019-03-04T16:28:36.154Z,5.10
2019-03-04T16:31:07.259Z,5.37
2019-03-04T16:33:40.050Z,5.75
2019-03-04T16:36:21.580Z,4.80
2019-03-04T16:39:08.331Z,5.10
2019-03-04T16:41:42.172Z,5.72
2019-03-04T16:44:14.124Z,5.53
2019-03-04T16:46:44.575Z,5.87
2019-03-04T16:49:15.953Z,6.58
2019-03-04T16:51:46.202Z,5.92
2019-03-04T16:54:16.301Z,6.90
2019-03-04T16:56:46.547Z,6.60
2019-03-04T16:59:16.860Z,7.55
2019-03-04T17:02:02.205Z,8.33
2019-03-04T17:04:40.293Z,8.23
2019-03-04T17:07:26.435Z,7.37
2019-03-04T17:10:00.355Z,8.80
2019-03-04T17:12:33.458Z,7.80
2019-03-04T17:15:04.173Z,7.37
2019-03-04T17:17:40.205Z,7.05
2019-03-04T17:20:21.539Z,6.42
2019-03-04T17:23:01.446Z,6.62
2019-03-04T17:25:31.907Z,5.62
2019-03-04T17:28:02.451Z,6.87
2019-03-04T17:30:46.523Z,5.70
2019-03-04T17:33:31.754Z,6.20
2019-03-04T17:36:11.800Z,6.47
2019-03-04T17:39:06.005Z,6.10
2019-03-04T17:41:48.746Z,6.60
2019-03-04T17:44:30.061Z,6.70
2019-03-04T17:47:13.238Z,6.35
2019-03-04T17:50:07.894Z,5.90
2019-03-04T17:53:00.759Z,5.62
2019-03-04T17:55:36.405Z,5.62
2019-03-04T17:58:28.354Z,6.10
2019-03-04T18:01:11.465Z,5.17
2019-03-04T18:03:46.880Z,4.47
2019-03-04T18:06:20.361Z,5.40
2019-03-04T18:12:21.671Z,5.65
2019-03-04T18:15:01.221Z,4.72
2019-03-04T18:17:50.876Z,6.22
2019-03-04T18:20:21.159Z,6.87
2019-03-04T18:22:51.945Z,6.00
2019-03-04T18:25:49.438Z,6.95
2019-03-04T18:28:57.068Z,6.37
2019-03-04T18:31:45.140Z,5.95
2019-03-04T18:34:43.745Z,7.30
2019-03-04T18:37:43.169Z,6.55
2019-03-04T18:40:56.974Z,5.00
2019-03-04T18:44:05.963Z,6.15
2019-03-04T18:47:16.515Z,7.75
2019-03-04T18:49:58.530Z,7.78
2019-03-04T18:52:31.121Z,6.15
2019-03-04T18:55:04.979Z,5.83
2019-03-04T18:57:45.462Z,5.30
2019-03-04T19:00:28.266Z,4.20
2019-03-04T19:03:08.187Z,6.72
2019-03-04T19:05:38.553Z,5.95
2019-03-04T19:08:08.963Z,5.90
2019-03-04T19:10:46.349Z,5.08
2019-03-04T19:13:16.684Z,5.97
2019-03-04T19:16:02.546Z,4.72
2019-03-04T19:18:39.668Z,5.53
2019-03-04T19:21:09.963Z,6.62
2019-03-04T19:23:40.861Z,4.30
2019-03-04T19:26:37.831Z,5.62
2019-03-04T19:29:08.203Z,6.70
2019-03-04T19:31:38.617Z,6.78
2019-03-04T19:34:08.949Z,5.00
2019-03-04T19:36:39.324Z,5.25
2019-03-04T19:39:10.122Z,5.25
2019-03-04T19:41:45.734Z,5.87
2019-03-04T19:44:15.956Z,4.45
2019-03-04T19:46:46.265Z,5.33
2019-03-04T19:49:17.146Z,5.12
2019-03-04T19:51:47.523Z,5.10
2019-03-04T19:54:18.016Z,4.80
2019-03-04T19:56:50.704Z,5.03
2019-03-04T19:59:21.426Z,4.83
2019-03-04T20:01:52.176Z,5.20
2019-03-04T20:04:22.548Z,4.17
2019-03-04T20:06:53.152Z,4.80
2019-03-04T20:09:42.632Z,4.08
2019-03-04T20:12:13.006Z,4.45
2019-03-04T20:14:44.856Z,4.62
2019-03-04T20:17:17.452Z,4.03
2019-03-04T20:19:49.656Z,4.47
2019-03-04T20:22:21.930Z,4.05
2019-03-04T20:24:51.909Z,3.72
2019-03-04T20:27:22.233Z,3.65
2019-03-04T20:29:52.721Z,3.90
2019-03-04T20:32:23.062Z,3.80
2019-03-04T20:34:53.337Z,3.15
2019-03-04T20:37:25.366Z,3.45
2019-03-04T20:39:55.636Z,3.55
2019-03-04T20:42:26.073Z,3.10
2019-03-04T20:44:58.754Z,2.98
2019-03-04T20:47:28.898Z,3.67
2019-03-04T20:50:01.669Z,3.55
2019-03-04T20:52:32.565Z,3.83
2019-03-04T20:55:02.776Z,3.15
2019-03-04T20:57:34.466Z,3.60
2019-03-04T21:00:06.774Z,5.15
2019-03-04T21:02:37.719Z,3.62
2019-03-04T21:05:09.893Z,3.85
2019-03-04T21:07:40.198Z,3.67
2019-03-04T21:10:10.928Z,3.42
2019-03-04T21:12:41.805Z,3.72
2019-03-04T21:15:12.624Z,3.10
2019-03-04T21:17:42.908Z,3.02
2019-03-04T21:20:13.309Z,2.83
2019-03-04T21:22:43.685Z,3.60
2019-03-04T21:25:34.469Z,3.37
2019-03-04T21:28:08.059Z,2.83
2019-03-04T21:31:07.357Z,3.70
2019-03-04T21:34:11.629Z,3.17
2019-03-04T21:36:59.036Z,2.67
2019-03-04T21:39:34.061Z,3.45
2019-03-04T21:42:09.777Z,2.70
2019-03-04T21:44:49.116Z,3.20
2019-03-04T21:47:32.363Z,3.52
2019-03-04T21:50:02.556Z,3.77
2019-03-04T21:52:51.227Z,2.90
2019-03-04T21:55:25.294Z,2.90
2019-03-04T21:57:57.244Z,2.65
2019-03-04T22:00:36.128Z,3.70
2019-03-04T22:03:22.571Z,2.87
2019-03-04T22:05:52.868Z,2.90
2019-03-04T22:08:24.834Z,2.87
2019-03-04T22:10:55.292Z,2.30
2019-03-04T22:13:25.851Z,2.85
2019-03-04T22:15:56.213Z,2.92
2019-03-04T22:18:29.560Z,2.80
2019-03-04T22:21:00.212Z,2.52
2019-03-04T22:23:31.625Z,3.00
2019-03-04T22:26:03.213Z,3.25
2019-03-04T22:28:33.476Z,2.90
2019-03-04T22:31:03.790Z,2.50
2019-03-04T22:33:34.126Z,3.47
2019-03-04T22:36:04.402Z,2.25
2019-03-04T22:38:34.709Z,3.30
2019-03-04T22:41:04.944Z,3.00
2019-03-04T22:43:35.210Z,2.65
2019-03-04T22:46:05.378Z,2.35
2019-03-04T22:48:35.537Z,2.47
2019-03-04T22:51:05.939Z,2.80
2019-03-04T22:53:36.084Z,3.52
2019-03-04T22:56:07.905Z,2.60
2019-03-04T22:58:38.054Z,2.95
2019-03-04T23:01:38.936Z,2.47
2019-03-04T23:04:37.220Z,3.70
2019-03-04T23:07:15.490Z,4.75
2019-03-04T23:10:22.086Z,2.47
2019-03-04T23:12:56.980Z,3.00
2019-03-04T23:15:27.096Z,3.80
2019-03-04T23:17:57.304Z,2.87
2019-03-04T23:20:27.573Z,2.75
2019-03-04T23:22:57.976Z,2.58
2019-03-04T23:25:30.463Z,2.30
2019-03-04T23:28:00.664Z,2.72
2019-03-04T23:30:30.845Z,2.50
2019-03-04T23:33:01.059Z,2.85
2019-03-04T23:35:31.215Z,2.12
2019-03-04T23:38:02.841Z,2.20
2019-03-04T23:40:33.836Z,2.50
2019-03-04T23:43:04.555Z,2.30
2019-03-04T23:45:34.763Z,1.50
2019-03-04T23:48:05.255Z,2.30
2019-03-04T23:50:37.774Z,1.50
2019-03-04T23:53:08.378Z,1.77
2019-03-04T23:55:38.584Z,1.75
2019-03-04T23:58:08.736Z,1.45
